Terminal Aerodrome Forecast
Issued by NWS Paducah, KY

Home | Current Version | Previous Version | Text Only | Print | Product List | Glossary On
Versions: 1 2 3 4 5 6 7 8 9 10 11 12 13 14 15 16 17 18 19 20
476
FTUS43 KPAH 100304 AAC
TAFPAH
TAF AMD
KPAH 100304Z 1003/1024 29004KT P6SM OVC050
     FM100600 30008KT P6SM SCT035
     FM101600 29008KT P6SM BKN100=

USA.gov is the U.S. government's official web portal to all federal, state and local government web resources and services.